createdAt,value
2018-07-10T00:00:02.966Z,59.00
2018-07-10T00:02:43.233Z,59.10
2018-07-10T00:07:57.810Z,59.10
2018-07-10T00:10:37.436Z,59.10
2018-07-10T00:13:07.286Z,59.40
2018-07-10T00:15:36.876Z,59.50
2018-07-10T00:18:05.776Z,59.50
2018-07-10T00:20:35.118Z,59.80
2018-07-10T00:23:04.146Z,59.40
2018-07-10T00:25:33.180Z,59.40
2018-07-10T00:28:02.142Z,59.50
2018-07-10T00:30:31.042Z,59.60
2018-07-10T00:32:59.986Z,59.60
2018-07-10T00:35:28.918Z,59.60
2018-07-10T00:38:09.208Z,59.60
2018-07-10T00:40:38.610Z,59.70
2018-07-10T00:43:09.412Z,59.60
2018-07-10T00:45:38.328Z,59.50
2018-07-10T00:48:07.342Z,59.40
2018-07-10T00:50:36.912Z,59.30
2018-07-10T00:53:05.898Z,59.20
2018-07-10T00:55:34.872Z,59.30
2018-07-10T00:58:04.048Z,59.20
2018-07-10T01:00:36.366Z,59.20
2018-07-10T01:03:05.383Z,59.20
2018-07-10T01:05:34.607Z,59.30
2018-07-10T01:08:03.880Z,59.30
2018-07-10T01:10:32.769Z,59.20
2018-07-10T01:13:02.051Z,59.20
2018-07-10T01:15:31.111Z,59.20
2018-07-10T01:18:00.107Z,59.20
2018-07-10T01:20:29.221Z,59.10
2018-07-10T01:22:58.236Z,59.10
2018-07-10T01:25:27.277Z,59.60
2018-07-10T01:27:56.234Z,59.20
2018-07-10T01:30:25.312Z,59.20
2018-07-10T01:32:54.403Z,59.20
2018-07-10T01:35:23.417Z,59.20
2018-07-10T01:37:52.565Z,59.20
2018-07-10T01:40:21.503Z,59.10
2018-07-10T01:42:50.560Z,59.20
2018-07-10T01:45:19.543Z,59.30
2018-07-10T01:47:48.493Z,59.40
2018-07-10T01:50:17.547Z,59.40
2018-07-10T01:52:46.949Z,59.40
2018-07-10T01:55:15.901Z,59.40
2018-07-10T01:57:44.874Z,59.10
2018-07-10T02:00:23.719Z,59.30
2018-07-10T02:02:53.008Z,59.30
2018-07-10T02:05:22.262Z,59.30
2018-07-10T02:07:51.336Z,59.20
2018-07-10T02:10:20.305Z,60.00
2018-07-10T02:12:49.344Z,59.60
2018-07-10T02:15:18.592Z,59.60
2018-07-10T02:17:47.592Z,59.80
2018-07-10T02:20:16.604Z,59.90
2018-07-10T02:22:46.123Z,60.00
2018-07-10T02:25:15.134Z,60.20
2018-07-10T02:27:44.650Z,60.20
2018-07-10T02:30:13.661Z,60.20
2018-07-10T02:32:43.162Z,60.40
2018-07-10T02:35:13.062Z,60.40
2018-07-10T02:37:44.898Z,60.40
2018-07-10T02:40:14.040Z,60.40
2018-07-10T02:42:42.986Z,60.20
2018-07-10T02:45:11.995Z,60.30
2018-07-10T02:47:40.980Z,61.10
2018-07-10T02:50:09.928Z,60.40
2018-07-10T02:52:40.728Z,60.50
2018-07-10T02:55:09.908Z,60.50
2018-07-10T02:57:38.936Z,60.90
2018-07-10T03:00:07.916Z,61.50
2018-07-10T03:02:36.902Z,62.30
2018-07-10T03:05:07.099Z,63.50
2018-07-10T03:07:37.733Z,64.90
2018-07-10T03:10:06.728Z,67.10
2018-07-10T03:12:36.781Z,69.40
2018-07-10T03:15:11.580Z,71.80
2018-07-10T03:17:40.884Z,74.10
2018-07-10T03:20:10.183Z,75.20
2018-07-10T03:22:39.165Z,76.10
2018-07-10T03:25:09.293Z,76.90
2018-07-10T03:27:38.265Z,78.20
2018-07-10T03:30:07.273Z,79.70
2018-07-10T03:32:35.671Z,81.70
2018-07-10T03:35:04.724Z,82.20
2018-07-10T03:37:33.753Z,83.10
2018-07-10T03:40:03.349Z,84.30
2018-07-10T03:42:32.834Z,85.20
2018-07-10T03:45:01.278Z,86.60
2018-07-10T03:47:29.904Z,86.20
2018-07-10T03:49:58.302Z,86.70
2018-07-10T03:52:32.307Z,87.20
2018-07-10T03:55:07.255Z,87.70
2018-07-10T03:57:36.523Z,88.10
2018-07-10T04:00:10.760Z,88.40
2018-07-10T04:02:43.199Z,88.70
2018-07-10T04:05:12.425Z,88.90
2018-07-10T04:07:41.919Z,89.00
2018-07-10T04:12:41.174Z,89.30
2018-07-10T04:15:10.612Z,89.20
2018-07-10T04:17:43.960Z,89.20
2018-07-10T04:20:16.718Z,89.30
2018-07-10T04:22:52.138Z,89.30
2018-07-10T04:25:25.584Z,89.50
2018-07-10T04:28:14.332Z,89.20
2018-07-10T04:30:56.314Z,89.20
2018-07-10T04:33:25.416Z,89.40
2018-07-10T04:35:53.893Z,88.80
2018-07-10T04:38:27.196Z,88.60
2018-07-10T04:41:00.254Z,88.90
2018-07-10T04:43:31.070Z,89.20
2018-07-10T04:46:00.315Z,89.40
2018-07-10T04:48:35.240Z,89.40
2018-07-10T04:51:43.469Z,89.70
2018-07-10T04:54:24.346Z,90.00
2018-07-10T04:57:01.505Z,90.00
2018-07-10T04:59:32.344Z,90.10
2018-07-10T05:02:01.333Z,90.00
2018-07-10T05:04:30.536Z,89.40
2018-07-10T05:07:02.717Z,89.50
2018-07-10T05:09:31.677Z,89.40
2018-07-10T05:12:00.992Z,89.20
2018-07-10T05:14:30.189Z,89.00
2018-07-10T05:16:58.568Z,89.60
2018-07-10T05:19:27.689Z,89.00
2018-07-10T05:21:56.746Z,88.90
2018-07-10T05:24:25.709Z,88.80
2018-07-10T05:26:54.739Z,88.30
2018-07-10T05:29:23.769Z,88.20
2018-07-10T05:31:52.765Z,88.50
2018-07-10T05:34:21.860Z,88.30
2018-07-10T05:36:50.944Z,88.10
2018-07-10T05:39:20.301Z,87.50
2018-07-10T05:41:49.262Z,87.50
2018-07-10T05:44:20.368Z,87.10
2018-07-10T05:49:18.512Z,87.00
2018-07-10T05:51:50.474Z,86.70
2018-07-10T05:54:20.252Z,86.20
2018-07-10T05:56:49.298Z,86.10
2018-07-10T05:59:18.338Z,86.10
2018-07-10T06:01:47.290Z,86.10
2018-07-10T06:04:17.629Z,86.30
2018-07-10T06:06:47.769Z,86.00
2018-07-10T06:09:17.530Z,85.60
2018-07-10T06:11:46.968Z,86.20
2018-07-10T06:14:16.474Z,86.10
2018-07-10T06:19:14.903Z,86.00
2018-07-10T06:21:50.733Z,85.50
2018-07-10T06:24:25.039Z,85.00
2018-07-10T06:30:11.857Z,85.10
2018-07-10T06:33:03.525Z,84.30
2018-07-10T06:35:36.697Z,84.20
2018-07-10T06:38:10.687Z,84.00
2018-07-10T06:40:42.754Z,84.10
2018-07-10T06:43:20.493Z,84.30
2018-07-10T06:45:50.478Z,84.10
2018-07-10T06:48:20.130Z,84.10
2018-07-10T06:50:49.089Z,84.00
2018-07-10T06:53:20.093Z,83.60
2018-07-10T06:55:55.346Z,83.40
2018-07-10T06:58:24.886Z,82.80
2018-07-10T07:00:55.449Z,82.50
2018-07-10T07:03:25.609Z,81.90
2018-07-10T07:05:54.589Z,81.40
2018-07-10T07:08:23.843Z,80.50
2018-07-10T07:10:52.915Z,79.90
2018-07-10T07:13:22.273Z,79.20
2018-07-10T07:15:51.441Z,77.70
2018-07-10T07:18:20.599Z,77.90
2018-07-10T07:20:49.315Z,77.90
2018-07-10T07:23:18.659Z,77.50
2018-07-10T07:25:48.022Z,77.80
2018-07-10T07:28:17.085Z,77.70
2018-07-10T07:30:46.071Z,77.90
2018-07-10T07:33:15.137Z,77.50
2018-07-10T07:35:44.258Z,77.00
2018-07-10T07:38:13.333Z,76.70
2018-07-10T07:40:42.689Z,76.60
2018-07-10T07:43:11.738Z,76.20
2018-07-10T07:45:40.830Z,75.40
2018-07-10T07:48:10.331Z,74.90
2018-07-10T07:50:39.654Z,74.90
2018-07-10T07:53:08.568Z,74.30
2018-07-10T07:55:37.556Z,73.30
2018-07-10T07:58:06.862Z,72.40
2018-07-10T08:00:35.872Z,71.70
2018-07-10T08:03:05.200Z,71.50
2018-07-10T08:05:34.236Z,71.60
2018-07-10T08:08:03.934Z,70.70
2018-07-10T08:13:02.868Z,70.10
2018-07-10T08:15:32.235Z,70.60
2018-07-10T08:18:01.664Z,70.40
2018-07-10T08:20:30.854Z,70.50
2018-07-10T08:23:00.104Z,70.40
2018-07-10T08:25:29.040Z,70.00
2018-07-10T08:27:58.414Z,69.60
2018-07-10T08:30:27.666Z,69.90
2018-07-10T08:32:57.136Z,69.50
2018-07-10T08:35:26.121Z,69.30
2018-07-10T08:37:55.263Z,68.40
2018-07-10T08:40:24.404Z,68.30
2018-07-10T08:42:53.451Z,68.40
2018-07-10T08:45:22.740Z,68.10
2018-07-10T08:47:52.109Z,68.00
2018-07-10T08:50:21.354Z,67.50
2018-07-10T08:52:50.703Z,67.20
2018-07-10T08:55:20.407Z,66.50
2018-07-10T08:57:49.650Z,66.70
2018-07-10T09:00:18.819Z,66.70
2018-07-10T09:02:48.982Z,66.20
2018-07-10T09:05:18.456Z,66.10
2018-07-10T09:07:47.625Z,66.20
2018-07-10T09:10:16.583Z,66.50
2018-07-10T09:12:45.535Z,66.10
2018-07-10T09:15:14.515Z,66.50
2018-07-10T09:17:43.647Z,66.80
2018-07-10T09:20:18.277Z,67.30
2018-07-10T09:22:47.557Z,67.00
2018-07-10T09:25:16.525Z,66.90
2018-07-10T09:27:45.513Z,66.70
2018-07-10T09:30:14.742Z,66.80
2018-07-10T09:32:44.710Z,66.70
2018-07-10T09:35:13.705Z,66.20
2018-07-10T09:37:45.807Z,66.30
2018-07-10T09:40:16.260Z,66.60
2018-07-10T09:42:55.581Z,66.50
2018-07-10T09:45:26.492Z,66.10
2018-07-10T09:47:56.184Z,65.90
2018-07-10T09:50:25.455Z,65.10
2018-07-10T09:52:54.730Z,65.40
2018-07-10T09:55:24.184Z,65.00
2018-07-10T09:57:55.218Z,64.80
2018-07-10T10:00:29.892Z,65.10
2018-07-10T10:02:59.185Z,65.50
2018-07-10T10:05:36.970Z,65.70
2018-07-10T10:08:06.136Z,66.00
2018-07-10T10:10:35.433Z,65.60
2018-07-10T10:13:05.008Z,65.00
2018-07-10T10:15:35.180Z,64.80
2018-07-10T10:18:06.393Z,65.10
2018-07-10T10:20:38.025Z,65.10
2018-07-10T10:23:07.832Z,65.50
2018-07-10T10:25:39.005Z,65.70
2018-07-10T10:28:09.964Z,65.70
2018-07-10T10:30:40.128Z,66.00
2018-07-10T10:33:10.149Z,66.10
2018-07-10T10:35:39.182Z,66.00
2018-07-10T10:38:08.341Z,64.50
2018-07-10T10:40:39.084Z,64.00
2018-07-10T10:43:09.984Z,64.30
2018-07-10T10:45:41.351Z,63.30
2018-07-10T10:48:10.814Z,62.60
2018-07-10T10:50:40.370Z,62.20
2018-07-10T10:53:09.387Z,62.50
2018-07-10T10:55:38.391Z,63.10
2018-07-10T10:58:07.415Z,62.10
2018-07-10T11:00:36.459Z,61.70
2018-07-10T11:03:05.449Z,61.70
2018-07-10T11:05:34.972Z,60.20
2018-07-10T11:08:04.169Z,59.80
2018-07-10T11:10:35.049Z,59.10
2018-07-10T11:13:04.337Z,58.60
2018-07-10T11:15:39.257Z,58.00
2018-07-10T11:18:11.276Z,57.20
2018-07-10T11:21:15.125Z,57.60
2018-07-10T11:23:49.113Z,58.30
2018-07-10T11:26:27.371Z,57.80
2018-07-10T11:28:56.577Z,57.60
2018-07-10T11:31:25.761Z,57.60
2018-07-10T11:33:54.959Z,57.30
2018-07-10T11:36:24.181Z,57.20
2018-07-10T11:38:55.815Z,57.20
2018-07-10T11:41:25.492Z,57.00
2018-07-10T11:43:54.808Z,57.50
2018-07-10T11:46:24.289Z,57.20
2018-07-10T11:48:53.210Z,57.50
2018-07-10T11:51:22.333Z,58.30
2018-07-10T11:53:51.536Z,58.50
2018-07-10T11:58:49.193Z,58.90
2018-07-10T12:01:18.211Z,58.90
2018-07-10T12:03:47.236Z,58.80
2018-07-10T12:06:16.254Z,59.70
2018-07-10T12:08:50.794Z,59.60
2018-07-10T12:11:20.828Z,59.00
2018-07-10T12:13:50.495Z,58.30
2018-07-10T12:16:19.482Z,58.10
2018-07-10T12:18:48.544Z,58.20
2018-07-10T12:21:18.513Z,58.80
2018-07-10T12:23:47.475Z,58.30
2018-07-10T12:26:16.426Z,58.00
2018-07-10T12:28:45.470Z,58.30
2018-07-10T12:31:14.861Z,58.00
2018-07-10T12:33:43.827Z,57.80
2018-07-10T12:36:12.827Z,57.90
2018-07-10T12:38:41.501Z,57.60
2018-07-10T12:41:10.595Z,57.50
2018-07-10T12:43:39.547Z,57.40
2018-07-10T12:46:09.005Z,57.00
2018-07-10T12:48:37.981Z,56.90
2018-07-10T12:51:06.959Z,57.20
2018-07-10T12:53:36.562Z,56.90
2018-07-10T12:56:05.681Z,56.20
2018-07-10T12:58:39.471Z,56.20
2018-07-10T13:01:08.788Z,56.30
2018-07-10T13:03:38.097Z,56.30
2018-07-10T13:06:07.134Z,56.50
2018-07-10T13:08:36.249Z,56.40
2018-07-10T13:11:05.245Z,56.50
2018-07-10T13:13:34.104Z,56.30
2018-07-10T13:16:03.130Z,55.50
2018-07-10T13:18:33.502Z,55.10
2018-07-10T13:21:02.446Z,55.20
2018-07-10T13:23:31.444Z,55.70
2018-07-10T13:26:00.431Z,55.80
2018-07-10T13:28:29.446Z,55.70
2018-07-10T13:30:58.854Z,54.70
2018-07-10T13:33:27.840Z,54.30
2018-07-10T13:35:56.951Z,54.80
2018-07-10T13:38:26.129Z,54.70
2018-07-10T13:40:57.793Z,54.60
2018-07-10T13:43:26.556Z,54.30
2018-07-10T13:45:55.464Z,53.70
2018-07-10T13:48:24.149Z,53.60
2018-07-10T13:50:53.169Z,54.00
2018-07-10T13:53:22.189Z,54.70
2018-07-10T13:55:50.941Z,54.30
2018-07-10T13:58:23.953Z,53.70
2018-07-10T14:01:09.299Z,53.30
2018-07-10T14:03:38.100Z,53.10
2018-07-10T14:06:07.375Z,52.20
2018-07-10T14:08:36.199Z,52.20
2018-07-10T14:11:05.081Z,51.50
2018-07-10T14:13:33.779Z,51.20
2018-07-10T14:16:02.481Z,51.90
2018-07-10T14:18:31.504Z,50.70
2018-07-10T14:21:06.371Z,50.10
2018-07-10T14:23:35.263Z,49.80
2018-07-10T14:26:04.365Z,49.60
2018-07-10T14:28:33.759Z,49.90
2018-07-10T14:31:02.542Z,49.90
2018-07-10T14:33:31.400Z,49.20
2018-07-10T14:36:00.103Z,48.50
2018-07-10T14:38:30.129Z,48.90
2018-07-10T14:41:01.240Z,48.10
2018-07-10T14:43:34.093Z,47.70
2018-07-10T14:46:06.215Z,47.60
2018-07-10T14:48:38.205Z,47.50
2018-07-10T14:51:06.842Z,47.80
2018-07-10T14:53:35.765Z,48.00
2018-07-10T14:56:04.875Z,48.00
2018-07-10T14:58:33.540Z,47.80
2018-07-10T15:01:02.181Z,47.70
2018-07-10T15:03:31.157Z,47.10
2018-07-10T15:06:00.319Z,47.30
2018-07-10T15:08:28.991Z,47.30
2018-07-10T15:10:57.693Z,47.50
2018-07-10T15:13:26.441Z,47.40
2018-07-10T15:16:01.738Z,48.10
2018-07-10T15:18:35.901Z,47.20
2018-07-10T15:21:04.800Z,46.60
2018-07-10T15:23:33.805Z,47.30
2018-07-10T15:26:02.641Z,47.10
2018-07-10T15:28:31.613Z,46.00
2018-07-10T15:31:00.462Z,46.40
2018-07-10T15:33:29.393Z,46.40
2018-07-10T15:35:58.242Z,46.30
2018-07-10T15:38:26.929Z,46.30
2018-07-10T15:40:56.251Z,46.60
2018-07-10T15:43:25.905Z,46.90
2018-07-10T15:45:54.593Z,47.10
2018-07-10T15:48:23.417Z,47.40
2018-07-10T15:50:52.156Z,47.70
2018-07-10T15:53:20.832Z,47.90
2018-07-10T15:55:49.673Z,48.00
2018-07-10T15:58:18.673Z,47.90
2018-07-10T16:00:47.477Z,48.30
2018-07-10T16:03:16.297Z,47.80
2018-07-10T16:05:45.377Z,47.90
2018-07-10T16:08:16.046Z,48.10
2018-07-10T16:11:07.641Z,48.00
2018-07-10T16:13:40.036Z,47.90
2018-07-10T16:16:10.723Z,47.80
2018-07-10T16:18:43.301Z,48.40
2018-07-10T16:21:12.375Z,48.60
2018-07-10T16:23:41.300Z,48.50
2018-07-10T16:26:16.016Z,48.60
2018-07-10T16:28:45.361Z,48.50
2018-07-10T16:31:17.034Z,48.50
2018-07-10T16:33:46.104Z,48.60
2018-07-10T16:36:15.492Z,49.00
2018-07-10T16:38:45.479Z,49.50
2018-07-10T16:41:24.072Z,49.60
2018-07-10T16:43:53.907Z,49.70
2018-07-10T16:46:28.153Z,49.50
2018-07-10T16:49:03.998Z,49.60
2018-07-10T16:51:42.170Z,49.70
2018-07-10T16:54:10.857Z,49.90
2018-07-10T16:56:39.674Z,50.00
2018-07-10T16:59:08.691Z,50.90
2018-07-10T17:01:37.806Z,50.70
2018-07-10T17:04:07.084Z,50.90
2018-07-10T17:06:36.076Z,51.10
2018-07-10T17:09:05.351Z,51.50
2018-07-10T17:11:34.618Z,51.60
2018-07-10T17:14:03.653Z,51.70
2018-07-10T17:16:32.615Z,51.40
2018-07-10T17:19:01.415Z,51.00
2018-07-10T17:21:30.203Z,50.50
2018-07-10T17:24:00.835Z,50.60
2018-07-10T17:26:29.723Z,49.40
2018-07-10T17:29:00.066Z,49.00
2018-07-10T17:31:28.778Z,48.50
2018-07-10T17:33:57.628Z,48.40
2018-07-10T17:36:26.304Z,48.20
2018-07-10T17:38:55.045Z,48.10
2018-07-10T17:41:23.991Z,48.20
2018-07-10T17:43:52.655Z,48.70
2018-07-10T17:48:49.893Z,48.10
2018-07-10T17:51:19.243Z,48.10
2018-07-10T17:53:48.059Z,48.80
2018-07-10T17:56:16.794Z,49.40
2018-07-10T17:58:45.629Z,49.70
2018-07-10T18:01:14.669Z,50.20
2018-07-10T18:03:43.714Z,50.40
2018-07-10T18:06:12.847Z,50.60
2018-07-10T18:08:41.882Z,51.00
2018-07-10T18:11:10.954Z,51.10
2018-07-10T18:13:40.444Z,51.10
2018-07-10T18:16:09.385Z,51.00
2018-07-10T18:18:38.879Z,51.20
2018-07-10T18:21:08.110Z,51.50
2018-07-10T18:23:37.703Z,51.70
2018-07-10T18:26:07.316Z,51.90
2018-07-10T18:28:36.537Z,51.70
2018-07-10T18:31:05.507Z,52.50
2018-07-10T18:33:34.562Z,52.60
2018-07-10T18:36:03.582Z,52.70
2018-07-10T18:38:32.692Z,52.70
2018-07-10T18:41:02.114Z,52.90
2018-07-10T18:43:31.135Z,53.00
2018-07-10T18:46:00.356Z,53.30
2018-07-10T18:48:29.494Z,53.60
2018-07-10T18:50:58.581Z,53.90
2018-07-10T18:53:27.756Z,54.20
2018-07-10T18:55:56.872Z,54.60
2018-07-10T18:58:32.220Z,55.00
2018-07-10T19:01:15.141Z,55.30
2018-07-10T19:03:47.146Z,55.50
2018-07-10T19:06:19.902Z,55.80
2018-07-10T19:08:48.949Z,56.00
2018-07-10T19:11:21.511Z,56.40
2018-07-10T19:13:50.645Z,56.70
2018-07-10T19:16:19.714Z,57.00
2018-07-10T19:18:51.179Z,57.30
2018-07-10T19:21:25.819Z,57.60
2018-07-10T19:23:57.658Z,57.90
2018-07-10T19:26:28.519Z,58.10
2018-07-10T19:30:09.854Z,58.70
2018-07-10T19:32:39.195Z,58.60
2018-07-10T19:35:08.415Z,59.10
2018-07-10T19:37:38.767Z,59.40
2018-07-10T19:40:08.020Z,59.60
2018-07-10T19:42:39.127Z,60.00
2018-07-10T19:45:08.195Z,60.30
2018-07-10T19:47:37.211Z,60.60
2018-07-10T19:50:19.138Z,60.90
2018-07-10T19:52:53.652Z,61.20
2018-07-10T19:55:26.167Z,61.50
2018-07-10T19:59:03.727Z,61.90
2018-07-10T20:01:38.793Z,62.20
2018-07-10T20:04:12.776Z,62.60
2018-07-10T20:06:47.303Z,62.90
2018-07-10T20:09:17.657Z,63.20
2018-07-10T20:12:00.057Z,63.40
2018-07-10T20:14:32.835Z,63.60
2018-07-10T20:17:06.628Z,63.70
2018-07-10T20:19:42.164Z,64.00
2018-07-10T20:23:18.327Z,64.20
2018-07-10T20:25:56.767Z,64.30
2018-07-10T20:28:40.607Z,64.50
2018-07-10T20:31:16.244Z,64.50
2018-07-10T20:34:16.376Z,64.70
2018-07-10T20:36:50.536Z,64.90
2018-07-10T20:39:19.549Z,65.00
2018-07-10T20:41:48.883Z,65.00
2018-07-10T20:46:55.319Z,65.20
2018-07-10T20:49:29.055Z,65.40
2018-07-10T20:52:05.459Z,66.20
2018-07-10T20:54:50.211Z,65.70
2018-07-10T20:57:27.241Z,65.90
2018-07-10T21:00:06.920Z,66.20
2018-07-10T21:04:51.073Z,66.30
2018-07-10T21:07:28.165Z,66.70
2018-07-10T21:10:39.415Z,67.10
2018-07-10T21:13:11.698Z,67.30
2018-07-10T21:15:58.051Z,67.50
2018-07-10T21:18:44.107Z,67.70
2018-07-10T21:21:24.565Z,67.90
2018-07-10T21:25:05.888Z,68.00
2018-07-10T21:28:46.129Z,68.80
2018-07-10T21:31:23.792Z,68.50
2018-07-10T21:33:59.681Z,68.70
2018-07-10T21:37:37.665Z,68.90
2018-07-10T21:40:28.468Z,69.10
2018-07-10T21:43:08.341Z,69.30
2018-07-10T21:46:21.470Z,69.60
2018-07-10T21:49:01.530Z,69.80
2018-07-10T21:51:30.486Z,70.00
2018-07-10T21:53:59.556Z,70.30
2018-07-10T21:56:29.105Z,70.50
2018-07-10T21:58:58.085Z,70.60
2018-07-10T22:01:41.562Z,70.80
2018-07-10T22:04:12.206Z,70.80
2018-07-10T22:06:41.761Z,71.00
2018-07-10T22:09:10.885Z,71.30
2018-07-10T22:11:40.045Z,71.60
2018-07-10T22:14:10.588Z,71.80
2018-07-10T22:16:40.212Z,72.00
2018-07-10T22:19:09.808Z,72.30
2018-07-10T22:21:39.625Z,72.40
2018-07-10T22:24:09.019Z,72.50
2018-07-10T22:26:38.422Z,72.40
2018-07-10T22:29:07.538Z,72.40
2018-07-10T22:34:10.905Z,72.40
2018-07-10T22:36:39.857Z,72.50
2018-07-10T22:39:08.909Z,72.50
2018-07-10T22:41:39.292Z,72.50
2018-07-10T22:44:08.384Z,72.50
2018-07-10T22:46:39.118Z,72.30
2018-07-10T22:49:10.102Z,72.20
2018-07-10T22:51:39.103Z,72.20
2018-07-10T22:54:08.102Z,72.30
2018-07-10T22:59:06.179Z,72.80
2018-07-10T23:01:35.777Z,73.10
2018-07-10T23:04:04.754Z,73.20
2018-07-10T23:06:35.522Z,73.40
2018-07-10T23:09:04.691Z,73.50
2018-07-10T23:11:34.127Z,73.60
2018-07-10T23:14:03.123Z,73.70
2018-07-10T23:16:37.008Z,74.00
2018-07-10T23:19:06.853Z,74.30
2018-07-10T23:21:37.450Z,74.50
2018-07-10T23:24:08.363Z,74.60
2018-07-10T23:26:38.951Z,74.70
2018-07-10T23:29:07.903Z,74.80
2018-07-10T23:31:36.881Z,74.80
2018-07-10T23:34:23.425Z,74.80
2018-07-10T23:36:55.307Z,75.00
2018-07-10T23:39:27.970Z,75.20
2018-07-10T23:42:03.076Z,75.50
2018-07-10T23:44:40.797Z,75.70
2018-07-10T23:47:19.422Z,75.80
2018-07-10T23:49:58.072Z,76.00
2018-07-10T23:53:22.323Z,75.90
2018-07-10T23:55:51.261Z,75.90
2018-07-10T23:58:20.249Z,75.60
